createdAt,value
2023-02-02T00:01:52.305Z,100784.52
2023-02-02T00:04:24.876Z,100789.42
2023-02-02T00:06:54.171Z,100793.20
2023-02-02T00:09:22.551Z,100796.20
2023-02-02T00:11:51.545Z,100796.23
2023-02-02T00:14:20.048Z,100799.42
2023-02-02T00:16:50.616Z,100793.85
2023-02-02T00:19:30.577Z,100796.77
2023-02-02T00:21:58.994Z,100789.48
2023-02-02T00:24:27.578Z,100788.33
2023-02-02T00:26:58.536Z,100780.75
2023-02-02T00:29:29.736Z,100782.17
2023-02-02T00:31:58.449Z,100781.04
2023-02-02T00:34:26.826Z,100776.71
2023-02-02T00:36:55.213Z,100773.35
2023-02-02T00:39:28.357Z,100773.64
2023-02-02T00:41:56.885Z,100772.39
2023-02-02T00:44:43.909Z,100778.16
2023-02-02T00:47:12.304Z,100772.50
2023-02-02T00:49:40.862Z,100767.04
2023-02-02T00:52:09.446Z,100770.42
2023-02-02T00:54:38.055Z,100763.21
2023-02-02T00:57:06.723Z,100759.27
2023-02-02T00:59:35.192Z,100758.97
2023-02-02T01:02:03.910Z,100762.06
2023-02-02T01:04:32.466Z,100758.98
2023-02-02T01:07:01.048Z,100760.09
2023-02-02T01:09:29.631Z,100751.11
2023-02-02T01:11:58.422Z,100747.61
2023-02-02T01:14:27.214Z,100746.27
2023-02-02T01:16:55.589Z,100741.37
2023-02-02T01:19:24.070Z,100740.84
2023-02-02T01:21:52.550Z,100739.40
2023-02-02T01:24:20.931Z,100739.95
2023-02-02T01:26:49.469Z,100726.97
2023-02-02T01:29:17.998Z,100722.98
2023-02-02T01:31:46.915Z,100724.41
2023-02-02T01:34:15.271Z,100726.66
2023-02-02T01:36:43.853Z,100730.12
2023-02-02T01:39:12.235Z,100725.71
2023-02-02T01:41:42.338Z,100726.43
2023-02-02T01:44:48.210Z,100730.61
2023-02-02T01:47:17.407Z,100723.98
2023-02-02T01:49:46.004Z,100726.63
2023-02-02T01:52:16.111Z,100718.63
2023-02-02T01:54:48.742Z,100724.41
2023-02-02T01:57:26.901Z,100721.38
2023-02-02T01:59:56.728Z,100723.02
2023-02-02T02:02:26.284Z,100721.58
2023-02-02T02:04:56.035Z,100717.13
2023-02-02T02:07:24.822Z,100714.90
2023-02-02T02:09:53.109Z,100705.61
2023-02-02T02:12:21.578Z,100701.03
2023-02-02T02:15:09.828Z,100704.52
2023-02-02T02:17:52.946Z,100703.50
2023-02-02T02:21:00.244Z,100699.61
2023-02-02T02:24:18.083Z,100698.24
2023-02-02T02:27:03.681Z,100701.52
2023-02-02T02:29:59.998Z,100701.84
2023-02-02T02:32:37.083Z,100703.14
2023-02-02T02:35:35.777Z,100701.95
2023-02-02T02:38:16.650Z,100703.84
2023-02-02T02:40:48.406Z,100703.77
2023-02-02T02:43:23.664Z,100707.59
2023-02-02T02:45:52.347Z,100708.01
2023-02-02T02:48:20.711Z,100714.40
2023-02-02T02:50:49.298Z,100715.81
2023-02-02T02:53:23.588Z,100711.88
2023-02-02T02:56:19.842Z,100712.23
2023-02-02T02:58:50.268Z,100709.65
2023-02-02T03:01:22.180Z,100701.17
2023-02-02T03:04:14.993Z,100708.61
2023-02-02T03:06:53.712Z,100707.38
2023-02-02T03:09:25.139Z,100708.90
2023-02-02T03:11:55.074Z,100708.61
2023-02-02T03:14:23.460Z,100714.60
2023-02-02T03:16:53.173Z,100717.59
2023-02-02T03:19:21.953Z,100720.30
2023-02-02T03:21:50.227Z,100724.05
2023-02-02T03:24:18.917Z,100723.15
2023-02-02T03:26:47.403Z,100719.22
2023-02-02T03:29:17.211Z,100720.54
2023-02-02T03:31:46.935Z,100720.45
2023-02-02T03:34:15.302Z,100719.58
2023-02-02T03:36:43.709Z,100717.65
2023-02-02T03:39:12.120Z,100716.65
2023-02-02T03:41:40.557Z,100712.92
2023-02-02T03:44:09.127Z,100711.84
2023-02-02T03:46:37.688Z,100706.08
2023-02-02T03:49:06.292Z,100701.62
2023-02-02T03:51:34.781Z,100701.71
2023-02-02T03:54:03.261Z,100704.15
2023-02-02T03:56:31.736Z,100706.62
2023-02-02T03:59:00.217Z,100708.49
2023-02-02T04:01:29.691Z,100715.23
2023-02-02T04:03:59.131Z,100717.06
2023-02-02T04:06:27.508Z,100721.86
2023-02-02T04:08:55.997Z,100721.27
2023-02-02T04:11:24.369Z,100719.34
2023-02-02T04:13:52.767Z,100727.04
2023-02-02T04:16:21.388Z,100726.66
2023-02-02T04:18:49.916Z,100724.25
2023-02-02T04:21:18.503Z,100727.48
2023-02-02T04:23:46.982Z,100728.12
2023-02-02T04:26:15.568Z,100729.13
2023-02-02T04:28:43.945Z,100729.17
2023-02-02T04:31:12.557Z,100728.95
2023-02-02T04:33:41.222Z,100728.30
2023-02-02T04:36:10.729Z,100726.00
2023-02-02T04:38:39.002Z,100722.21
2023-02-02T04:41:09.413Z,100722.08
2023-02-02T04:43:39.340Z,100724.65
2023-02-02T04:46:07.757Z,100723.01
2023-02-02T04:48:36.313Z,100713.70
2023-02-02T04:51:07.472Z,100705.49
2023-02-02T04:53:36.258Z,100701.50
2023-02-02T04:56:17.737Z,100710.48
2023-02-02T04:58:46.418Z,100714.40
2023-02-02T05:01:19.643Z,100719.91
2023-02-02T05:03:48.503Z,100720.38
2023-02-02T05:06:18.187Z,100717.48
2023-02-02T05:08:49.153Z,100718.63
2023-02-02T05:11:19.954Z,100719.95
2023-02-02T05:13:53.735Z,100718.33
2023-02-02T05:16:23.222Z,100722.00
2023-02-02T05:18:53.545Z,100730.71
2023-02-02T05:21:22.772Z,100739.89
2023-02-02T05:23:51.199Z,100737.48
2023-02-02T05:26:25.131Z,100734.77
2023-02-02T05:28:54.307Z,100728.56
2023-02-02T05:31:22.742Z,100733.26
2023-02-02T05:33:51.269Z,100740.44
2023-02-02T05:36:19.656Z,100743.56
2023-02-02T05:38:48.264Z,100748.40
2023-02-02T05:41:16.815Z,100741.41
2023-02-02T05:43:45.297Z,100739.35
2023-02-02T05:46:14.466Z,100748.84
2023-02-02T05:48:43.016Z,100753.19
2023-02-02T05:51:22.276Z,100749.74
2023-02-02T05:53:50.713Z,100753.16
2023-02-02T05:56:19.286Z,100748.52
2023-02-02T05:58:50.217Z,100750.30
2023-02-02T06:01:19.209Z,100753.07
2023-02-02T06:03:48.153Z,100751.66
2023-02-02T06:06:16.836Z,100755.50
2023-02-02T06:08:45.373Z,100753.98
2023-02-02T06:11:16.660Z,100758.69
2023-02-02T06:13:46.145Z,100759.17
2023-02-02T06:16:14.985Z,100754.54
2023-02-02T06:18:43.605Z,100755.80
2023-02-02T06:21:12.498Z,100763.92
2023-02-02T06:23:46.199Z,100764.89
2023-02-02T06:26:16.330Z,100763.02
2023-02-02T06:28:49.307Z,100761.19
2023-02-02T06:31:19.667Z,100762.46
2023-02-02T06:33:59.187Z,100759.89
2023-02-02T06:36:28.674Z,100765.61
2023-02-02T06:38:58.079Z,100769.77
2023-02-02T06:41:26.763Z,100772.26
2023-02-02T06:43:55.042Z,100769.84
2023-02-02T06:46:23.650Z,100783.41
2023-02-02T06:48:52.219Z,100780.52
2023-02-02T06:51:21.213Z,100786.53
2023-02-02T06:53:50.095Z,100783.86
2023-02-02T06:56:18.683Z,100784.65
2023-02-02T06:58:47.166Z,100788.77
2023-02-02T07:01:15.935Z,100782.85
2023-02-02T07:03:49.661Z,100789.52
2023-02-02T07:06:19.530Z,100792.58
2023-02-02T07:08:59.655Z,100790.35
2023-02-02T07:11:34.612Z,100792.47
2023-02-02T07:14:04.503Z,100796.93
2023-02-02T07:16:33.070Z,100791.92
2023-02-02T07:19:01.858Z,100785.02
2023-02-02T07:21:36.191Z,100784.50
2023-02-02T07:24:06.512Z,100785.65
2023-02-02T07:26:36.801Z,100785.50
2023-02-02T07:29:05.672Z,100786.77
2023-02-02T07:31:36.481Z,100786.44
2023-02-02T07:34:05.476Z,100788.47
2023-02-02T07:36:34.355Z,100783.10
2023-02-02T07:39:05.210Z,100781.23
2023-02-02T07:41:37.533Z,100780.82
2023-02-02T07:44:07.704Z,100780.13
2023-02-02T07:46:36.575Z,100775.65
2023-02-02T07:49:06.980Z,100780.33
2023-02-02T07:51:37.836Z,100780.33
2023-02-02T07:54:07.218Z,100780.65
2023-02-02T07:56:35.701Z,100779.50
2023-02-02T07:59:04.589Z,100780.71
2023-02-02T08:01:33.385Z,100780.91
2023-02-02T08:04:03.723Z,100786.11
2023-02-02T08:06:40.236Z,100784.06
2023-02-02T08:09:10.200Z,100785.58
2023-02-02T08:11:39.187Z,100787.52
2023-02-02T08:14:07.701Z,100790.85
2023-02-02T08:16:36.517Z,100788.41
2023-02-02T08:19:05.041Z,100784.70
2023-02-02T08:21:35.112Z,100785.28
2023-02-02T08:24:05.432Z,100785.63
2023-02-02T08:26:34.162Z,100791.84
2023-02-02T08:29:05.624Z,100793.89
2023-02-02T08:31:42.107Z,100794.48
2023-02-02T08:34:12.401Z,100791.15
2023-02-02T08:36:41.511Z,100789.45
2023-02-02T08:39:12.374Z,100787.35
2023-02-02T08:41:40.755Z,100784.66
2023-02-02T08:44:11.662Z,100782.34
2023-02-02T08:46:40.719Z,100788.24
2023-02-02T08:49:12.828Z,100786.85
2023-02-02T08:51:42.061Z,100782.05
2023-02-02T08:54:10.613Z,100779.34
2023-02-02T08:56:39.232Z,100782.45
2023-02-02T08:59:08.060Z,100782.61
2023-02-02T09:01:36.644Z,100788.17
2023-02-02T09:04:12.409Z,100786.66
2023-02-02T09:06:41.421Z,100782.11
2023-02-02T09:09:13.518Z,100779.72
2023-02-02T09:11:43.211Z,100773.84
2023-02-02T09:14:13.540Z,100776.13
2023-02-02T09:16:42.563Z,100775.79
2023-02-02T09:19:12.041Z,100769.69
2023-02-02T09:21:41.019Z,100763.54
2023-02-02T09:24:14.362Z,100766.91
2023-02-02T09:26:44.247Z,100759.25
2023-02-02T09:29:15.552Z,100755.05
2023-02-02T09:31:44.167Z,100762.88
2023-02-02T09:34:13.865Z,100756.73
2023-02-02T09:36:43.023Z,100750.00
2023-02-02T09:39:16.831Z,100748.39
2023-02-02T09:41:52.440Z,100738.47
2023-02-02T09:44:26.658Z,100731.68
2023-02-02T09:47:24.115Z,100727.85
2023-02-02T09:50:04.569Z,100726.61
2023-02-02T09:52:54.457Z,100718.92
2023-02-02T09:55:35.137Z,100710.05
2023-02-02T09:58:12.359Z,100709.83
2023-02-02T10:00:46.633Z,100710.48
2023-02-02T10:03:45.941Z,100705.65
2023-02-02T10:06:26.727Z,100698.77
2023-02-02T10:09:07.019Z,100684.32
2023-02-02T10:11:53.819Z,100674.84
2023-02-02T10:14:42.556Z,100669.04
2023-02-02T10:17:41.415Z,100674.73
2023-02-02T10:20:50.717Z,100681.23
2023-02-02T10:23:38.269Z,100679.75
2023-02-02T10:26:44.653Z,100683.23
2023-02-02T10:29:17.576Z,100691.27
2023-02-02T10:32:06.994Z,100701.48
2023-02-02T10:35:10.976Z,100697.22
2023-02-02T10:38:03.847Z,100691.17
2023-02-02T10:40:59.895Z,100685.81
2023-02-02T10:43:54.648Z,100683.59
2023-02-02T10:46:26.985Z,100692.48
2023-02-02T10:49:07.262Z,100690.67
2023-02-02T10:51:35.537Z,100688.64
2023-02-02T10:54:15.929Z,100686.46
2023-02-02T10:56:48.877Z,100685.20
2023-02-02T10:59:23.347Z,100678.11
2023-02-02T11:01:52.217Z,100676.80
2023-02-02T11:04:39.530Z,100679.13
2023-02-02T11:07:08.144Z,100681.59
2023-02-02T11:09:40.282Z,100683.27
2023-02-02T11:12:31.164Z,100689.42
2023-02-02T11:15:06.805Z,100686.87
2023-02-02T11:17:35.408Z,100680.77
2023-02-02T11:20:31.175Z,100674.31
2023-02-02T11:23:02.322Z,100681.63
2023-02-02T11:25:34.215Z,100674.69
2023-02-02T11:28:13.885Z,100673.87
2023-02-02T11:30:42.187Z,100676.66
2023-02-02T11:33:42.182Z,100678.56
2023-02-02T11:36:22.071Z,100671.71
2023-02-02T11:39:28.078Z,100678.02
2023-02-02T11:42:05.500Z,100680.69
2023-02-02T11:44:35.985Z,100665.48
2023-02-02T11:47:05.664Z,100666.47
2023-02-02T11:49:39.497Z,100671.48
2023-02-02T11:52:16.929Z,100676.73
2023-02-02T11:54:53.017Z,100669.94
2023-02-02T11:57:23.455Z,100664.88
2023-02-02T12:00:08.622Z,100667.61
2023-02-02T12:02:37.371Z,100661.69
2023-02-02T12:05:33.820Z,100653.70
2023-02-02T12:08:02.771Z,100651.59
2023-02-02T12:10:55.610Z,100656.09
2023-02-02T12:13:34.203Z,100648.17
2023-02-02T12:16:34.808Z,100648.95
2023-02-02T12:19:30.644Z,100641.44
2023-02-02T12:22:11.371Z,100644.66
2023-02-02T12:25:09.363Z,100646.86
2023-02-02T12:27:49.285Z,100649.80
2023-02-02T12:30:47.361Z,100658.95
2023-02-02T12:33:29.958Z,100665.02
2023-02-02T12:36:22.627Z,100673.31
2023-02-02T12:39:05.948Z,100661.20
2023-02-02T12:42:01.992Z,100669.31
2023-02-02T12:44:54.275Z,100655.45
2023-02-02T12:47:30.301Z,100659.10
2023-02-02T12:50:23.923Z,100660.09
2023-02-02T12:53:17.636Z,100659.52
2023-02-02T12:56:13.740Z,100650.96
2023-02-02T12:58:44.888Z,100651.89
2023-02-02T13:01:23.668Z,100660.46
2023-02-02T13:04:12.285Z,100659.98
2023-02-02T13:07:22.132Z,100659.79
2023-02-02T13:10:08.928Z,100658.66
2023-02-02T13:12:43.338Z,100651.65
2023-02-02T13:15:19.729Z,100653.79
2023-02-02T13:17:53.950Z,100650.98
2023-02-02T13:20:41.727Z,100651.14
2023-02-02T13:23:21.556Z,100654.08
2023-02-02T13:25:54.284Z,100657.70
2023-02-02T13:28:48.385Z,100661.69
2023-02-02T13:31:31.876Z,100661.61
2023-02-02T13:34:21.458Z,100661.48
2023-02-02T13:37:19.032Z,100672.13
2023-02-02T13:39:56.972Z,100676.11
2023-02-02T13:42:42.280Z,100670.45
2023-02-02T13:45:33.032Z,100661.79
2023-02-02T13:48:45.860Z,100666.06
2023-02-02T13:51:42.884Z,100661.69
2023-02-02T13:54:26.211Z,100669.91
2023-02-02T13:57:04.587Z,100669.11
2023-02-02T14:00:04.636Z,100667.55
2023-02-02T14:02:40.453Z,100673.29
2023-02-02T14:05:23.845Z,100677.74
2023-02-02T14:08:00.675Z,100669.64
2023-02-02T14:10:45.319Z,100670.24
2023-02-02T14:13:32.193Z,100673.13
2023-02-02T14:16:03.148Z,100668.96
2023-02-02T14:18:51.885Z,100667.05
2023-02-02T14:21:32.032Z,100665.95
2023-02-02T14:24:05.115Z,100666.97
2023-02-02T14:26:48.348Z,100661.52
2023-02-02T14:29:39.647Z,100662.59
2023-02-02T14:32:07.840Z,100660.80
2023-02-02T14:34:40.068Z,100655.02
2023-02-02T14:37:26.705Z,100656.80
2023-02-02T14:40:07.253Z,100652.88
2023-02-02T14:43:12.744Z,100652.34
2023-02-02T14:45:42.623Z,100645.15
2023-02-02T14:48:16.439Z,100643.73
2023-02-02T14:50:57.375Z,100642.44
2023-02-02T14:53:28.969Z,100641.89
2023-02-02T14:56:17.019Z,100641.17
2023-02-02T14:58:54.380Z,100636.81
2023-02-02T15:01:28.802Z,100631.95
2023-02-02T15:04:21.920Z,100630.73
2023-02-02T15:06:53.048Z,100627.81
2023-02-02T15:09:23.985Z,100625.15
2023-02-02T15:12:09.020Z,100629.21
2023-02-02T15:15:25.517Z,100630.02
2023-02-02T15:18:13.952Z,100628.73
2023-02-02T15:20:48.939Z,100629.92
2023-02-02T15:23:44.545Z,100628.98
2023-02-02T15:26:25.137Z,100630.43
2023-02-02T15:28:57.753Z,100632.40
2023-02-02T15:31:45.902Z,100630.77
2023-02-02T15:34:49.759Z,100628.48
2023-02-02T15:37:26.917Z,100634.98
2023-02-02T15:39:57.856Z,100634.38
2023-02-02T15:42:53.187Z,100637.59
2023-02-02T15:46:03.329Z,100642.59
2023-02-02T15:48:33.167Z,100648.66
2023-02-02T15:51:04.768Z,100655.27
2023-02-02T15:53:53.479Z,100660.57
2023-02-02T15:56:30.370Z,100662.86
2023-02-02T15:59:00.291Z,100667.02
2023-02-02T16:01:31.805Z,100669.40
2023-02-02T16:04:02.860Z,100673.65
2023-02-02T16:06:31.688Z,100686.79
2023-02-02T16:09:03.718Z,100699.73
2023-02-02T16:11:32.077Z,100705.66
2023-02-02T16:14:12.502Z,100710.11
2023-02-02T16:16:41.384Z,100695.20
2023-02-02T16:19:09.753Z,100707.13
2023-02-02T16:21:43.058Z,100707.71
2023-02-02T16:24:16.027Z,100715.79
2023-02-02T16:26:44.491Z,100717.34
2023-02-02T16:29:17.552Z,100721.39
2023-02-02T16:31:49.949Z,100716.05
2023-02-02T16:34:43.285Z,100719.80
2023-02-02T16:37:27.665Z,100721.89
2023-02-02T16:39:57.984Z,100723.26
2023-02-02T16:42:26.280Z,100726.14
2023-02-02T16:44:56.008Z,100729.11
2023-02-02T16:47:27.251Z,100734.86
2023-02-02T16:50:33.779Z,100735.16
2023-02-02T16:53:04.133Z,100736.14
2023-02-02T16:55:49.188Z,100730.30
2023-02-02T16:58:22.471Z,100733.29
2023-02-02T17:01:12.324Z,100736.66
2023-02-02T17:03:49.584Z,100741.59
2023-02-02T17:06:25.588Z,100747.23
2023-02-02T17:08:53.830Z,100750.83
2023-02-02T17:11:27.201Z,100753.88
2023-02-02T17:13:55.559Z,100757.88
2023-02-02T17:16:25.169Z,100768.77
2023-02-02T17:18:53.483Z,100780.22
2023-02-02T17:21:23.890Z,100790.66
2023-02-02T17:23:54.325Z,100787.15
2023-02-02T17:26:22.552Z,100785.59
2023-02-02T17:28:57.689Z,100785.82
2023-02-02T17:31:26.147Z,100790.77
2023-02-02T17:33:54.446Z,100793.23
2023-02-02T17:36:22.647Z,100794.57
2023-02-02T17:38:50.939Z,100794.93
2023-02-02T17:41:19.260Z,100798.39
2023-02-02T17:43:47.544Z,100802.88
2023-02-02T17:46:15.941Z,100805.20
2023-02-02T17:48:44.446Z,100809.17
2023-02-02T17:51:16.661Z,100808.96
2023-02-02T17:53:46.159Z,100813.24
2023-02-02T17:56:14.462Z,100808.94
2023-02-02T17:58:42.722Z,100806.55
2023-02-02T18:01:12.131Z,100809.44
2023-02-02T18:03:41.328Z,100812.55
2023-02-02T18:06:11.105Z,100817.41
2023-02-02T18:08:39.335Z,100818.15
2023-02-02T18:11:11.138Z,100818.69
2023-02-02T18:13:41.362Z,100816.48
2023-02-02T18:16:11.369Z,100821.10
2023-02-02T18:18:40.018Z,100829.55
2023-02-02T18:21:12.247Z,100833.27
2023-02-02T18:23:41.211Z,100833.73
2023-02-02T18:26:20.554Z,100837.47
2023-02-02T18:28:49.841Z,100837.88
2023-02-02T18:31:20.111Z,100841.75
2023-02-02T18:33:48.454Z,100845.77
2023-02-02T18:36:20.120Z,100845.91
2023-02-02T18:38:49.272Z,100836.41
2023-02-02T18:41:18.787Z,100839.57
2023-02-02T18:43:48.084Z,100840.51
2023-02-02T18:46:17.428Z,100838.15
2023-02-02T18:48:45.790Z,100839.06
2023-02-02T18:51:16.924Z,100837.41
2023-02-02T18:53:46.477Z,100832.48
2023-02-02T18:56:15.396Z,100837.47
2023-02-02T18:58:44.020Z,100843.52
2023-02-02T19:01:17.798Z,100842.40
2023-02-02T19:03:50.885Z,100845.65
2023-02-02T19:06:38.455Z,100843.77
2023-02-02T19:09:07.280Z,100848.64
2023-02-02T19:11:43.976Z,100846.36
2023-02-02T19:14:19.791Z,100839.33
2023-02-02T19:16:48.949Z,100844.25
2023-02-02T19:19:25.099Z,100847.84
2023-02-02T19:21:57.948Z,100843.96
2023-02-02T19:24:28.252Z,100846.29
2023-02-02T19:26:56.875Z,100842.63
2023-02-02T19:29:26.555Z,100839.39
2023-02-02T19:32:18.405Z,100845.03
2023-02-02T19:34:47.015Z,100849.20
2023-02-02T19:37:26.805Z,100839.37
2023-02-02T19:40:22.484Z,100849.78
2023-02-02T19:42:56.364Z,100846.06
2023-02-02T19:45:29.148Z,100850.41
2023-02-02T19:47:59.253Z,100855.98
2023-02-02T19:50:32.411Z,100867.38
2023-02-02T19:53:02.512Z,100862.63
2023-02-02T19:55:36.628Z,100863.11
2023-02-02T19:58:22.746Z,100863.96
2023-02-02T20:00:52.869Z,100863.39
2023-02-02T20:03:24.153Z,100867.52
2023-02-02T20:05:54.060Z,100862.39
2023-02-02T20:08:26.752Z,100863.27
2023-02-02T20:10:58.879Z,100860.52
2023-02-02T20:13:43.147Z,100860.30
2023-02-02T20:16:16.659Z,100864.86
2023-02-02T20:18:48.684Z,100868.05
2023-02-02T20:21:26.689Z,100866.33
2023-02-02T20:23:54.945Z,100867.11
2023-02-02T20:26:24.622Z,100866.02
2023-02-02T20:28:55.949Z,100867.36
2023-02-02T20:31:27.920Z,100864.71
2023-02-02T20:33:57.863Z,100865.42
2023-02-02T20:36:41.123Z,100868.28
2023-02-02T20:39:29.952Z,100864.81
2023-02-02T20:41:58.936Z,100866.77
2023-02-02T20:44:28.537Z,100863.98
2023-02-02T20:46:58.137Z,100862.46
2023-02-02T20:49:27.373Z,100862.63
2023-02-02T20:51:56.613Z,100860.26
2023-02-02T20:54:25.322Z,100864.52
2023-02-02T20:56:54.530Z,100871.04
2023-02-02T20:59:22.847Z,100871.58
2023-02-02T21:01:51.277Z,100872.80
2023-02-02T21:04:20.259Z,100851.11
2023-02-02T21:06:49.017Z,100885.07
2023-02-02T21:09:18.156Z,100883.08
2023-02-02T21:11:46.389Z,100885.73
2023-02-02T21:14:15.063Z,100885.20
2023-02-02T21:16:43.387Z,100883.40
2023-02-02T21:19:11.777Z,100882.77
2023-02-02T21:21:40.170Z,100883.35
2023-02-02T21:24:08.527Z,100889.98
2023-02-02T21:26:36.707Z,100891.14
2023-02-02T21:29:05.111Z,100892.73
2023-02-02T21:31:35.509Z,100893.22
2023-02-02T21:34:03.848Z,100890.20
2023-02-02T21:36:36.963Z,100895.21
2023-02-02T21:39:29.124Z,100894.52
2023-02-02T21:42:09.529Z,100903.11
2023-02-02T21:44:45.006Z,100909.33
2023-02-02T21:47:22.602Z,100912.07
2023-02-02T21:49:50.861Z,100916.09
2023-02-02T21:52:20.270Z,100915.62
2023-02-02T21:54:49.414Z,100920.80
2023-02-02T21:57:22.581Z,100924.46
2023-02-02T21:59:56.196Z,100927.25
2023-02-02T22:02:44.137Z,100925.97
2023-02-02T22:05:16.209Z,100925.84
2023-02-02T22:07:47.449Z,100927.97
2023-02-02T22:10:32.151Z,100930.86
2023-02-02T22:13:01.495Z,100937.96
2023-02-02T22:15:33.641Z,100938.44
2023-02-02T22:18:13.023Z,100942.02
2023-02-02T22:20:44.903Z,100942.78
2023-02-02T22:23:18.910Z,100943.70
2023-02-02T22:25:48.769Z,100946.86
2023-02-02T22:28:26.299Z,100945.80
2023-02-02T22:30:56.152Z,100948.04
2023-02-02T22:33:26.489Z,100951.21
2023-02-02T22:35:54.823Z,100949.86
2023-02-02T22:38:25.413Z,100948.27
2023-02-02T22:40:54.027Z,100944.86
2023-02-02T22:43:22.311Z,100948.76
2023-02-02T22:45:50.542Z,100949.73
2023-02-02T22:48:19.053Z,100953.80
2023-02-02T22:50:47.422Z,100949.23
2023-02-02T22:53:15.745Z,100953.10
2023-02-02T22:55:43.952Z,100955.25
2023-02-02T22:58:12.206Z,100967.55
2023-02-02T23:00:40.499Z,100973.58
2023-02-02T23:03:08.808Z,100972.08
2023-02-02T23:05:37.063Z,100970.98
2023-02-02T23:08:05.568Z,100969.70
2023-02-02T23:10:36.856Z,100966.48
2023-02-02T23:13:06.095Z,100967.92
2023-02-02T23:15:35.172Z,100973.35
2023-02-02T23:18:03.890Z,100975.42
2023-02-02T23:20:32.111Z,100979.06
2023-02-02T23:23:00.299Z,100976.94
2023-02-02T23:25:28.518Z,100973.91
2023-02-02T23:27:56.756Z,100974.45
2023-02-02T23:30:25.346Z,100978.08
2023-02-02T23:32:53.703Z,100982.35
2023-02-02T23:35:21.925Z,100981.05
2023-02-02T23:37:50.074Z,100977.89
2023-02-02T23:40:18.491Z,100976.42
2023-02-02T23:42:46.716Z,100975.25
2023-02-02T23:45:16.431Z,100977.59
2023-02-02T23:47:45.171Z,100977.09
2023-02-02T23:50:13.732Z,100981.95
2023-02-02T23:52:41.932Z,100981.39
2023-02-02T23:55:10.312Z,100984.19
2023-02-02T23:57:38.751Z,100988.16
